Time;durP1;ratioP1;P1;durP2;ratioP2;P2;SDS_P1;SDS_P2;PMS_P1;PMS_P2;Temp;Humidity;BMP_temperature;BMP_pressure;BME280_temperature;BME280_humidity;BME280_pressure;Samples;Min_cycle;Max_cycle;Signal;HPM_P1;HPM_P2
2023/06/15 00:00:18;;;;;;;1.27;0.80;;;30.20;32.10;;;;;;5041606;28;88580;-59
2023/06/15 00:02:46;;;;;;;1.00;0.90;;;30.20;32.10;;;;;;5041097;28;89081;-59
2023/06/15 00:05:15;;;;;;;0.80;0.67;;;30.20;32.20;;;;;;5041128;28;89211;-59
2023/06/15 00:07:45;;;;;;;0.87;0.87;;;30.20;32.20;;;;;;5042200;28;87504;-59
2023/06/15 00:10:13;;;;;;;1.13;0.90;;;30.20;32.20;;;;;;5041932;28;89473;-59
2023/06/15 00:12:41;;;;;;;3.37;1.20;;;30.10;32.10;;;;;;5041769;28;87648;-59
2023/06/15 00:15:10;;;;;;;1.30;1.20;;;30.10;32.10;;;;;;5042072;28;88093;-59
2023/06/15 00:17:41;;;;;;;2.27;1.30;;;30.10;32.20;;;;;;5042231;28;87582;-59
2023/06/15 00:20:12;;;;;;;1.20;1.10;;;30.10;32.30;;;;;;5059363;27;88867;-59
2023/06/15 00:22:41;;;;;;;1.67;0.90;;;30.20;32.30;;;;;;5062591;27;89106;-59
2023/06/15 00:25:11;;;;;;;1.23;1.13;;;30.20;32.40;;;;;;5060660;27;87629;-58
2023/06/15 00:27:39;;;;;;;1.47;1.00;;;30.20;33.10;;;;;;5061498;27;87825;-59
2023/06/15 00:30:09;;;;;;;1.10;1.00;;;30.20;32.40;;;;;;5061101;27;88507;-59
2023/06/15 00:32:37;;;;;;;1.17;1.07;;;30.20;32.40;;;;;;5061575;27;89032;-59
2023/06/15 00:35:06;;;;;;;0.80;0.80;;;30.20;32.40;;;;;;5061917;27;87799;-59
2023/06/15 00:37:34;;;;;;;2.33;1.20;;;30.20;32.40;;;;;;5062272;27;87044;-59
2023/06/15 00:40:05;;;;;;;0.70;0.70;;;30.20;32.40;;;;;;5061673;27;88650;-59
2023/06/15 00:42:35;;;;;;;0.90;0.90;;;30.20;32.40;;;;;;5061263;27;88262;-59
2023/06/15 00:45:04;;;;;;;1.77;1.10;;;30.10;32.40;;;;;;5061993;27;87958;-59
2023/06/15 00:47:32;;;;;;;1.10;1.00;;;30.10;32.40;;;;;;5061924;27;87650;-59
2023/06/15 00:50:00;;;;;;;1.43;1.03;;;30.10;32.40;;;;;;5061107;27;88508;-58
2023/06/15 00:52:28;;;;;;;0.97;0.93;;;30.10;32.50;;;;;;5060841;27;90066;-59
2023/06/15 00:54:56;;;;;;;1.07;0.97;;;30.10;32.50;;;;;;5061530;27;88902;-59
2023/06/15 00:57:25;;;;;;;1.60;1.13;;;30.20;32.60;;;;;;5062034;27;87650;-59
2023/06/15 00:59:55;;;;;;;0.83;0.80;;;30.20;32.60;;;;;;5060985;27;88598;-59
2023/06/15 01:02:24;;;;;;;0.60;0.60;;;30.20;32.70;;;;;;5060841;27;88253;-59
2023/06/15 01:04:52;;;;;;;1.00;0.90;;;30.20;32.80;;;;;;5061434;27;87828;-58
2023/06/15 01:07:20;;;;;;;0.57;0.50;;;30.20;32.80;;;;;;5061864;27;87539;-59
2023/06/15 01:09:48;;;;;;;1.40;0.83;;;30.20;32.80;;;;;;5061728;27;89632;-59
2023/06/15 01:12:17;;;;;;;0.80;0.73;;;30.20;32.90;;;;;;5061136;27;88093;-58
2023/06/15 01:14:45;;;;;;;0.80;0.80;;;30.20;33.00;;;;;;5061078;27;87946;-59
2023/06/15 01:17:15;;;;;;;1.30;0.80;;;30.20;33.00;;;;;;5061437;27;87919;-59
2023/06/15 01:19:53;;;;;;;0.87;0.87;;;30.20;33.80;;;;;;5060311;27;88529;-59
2023/06/15 01:22:29;;;;;;;2.90;0.90;;;30.10;33.00;;;;;;5061263;27;89074;-59
2023/06/15 01:25:04;;;;;;;0.70;0.70;;;30.10;33.00;;;;;;5061171;27;88469;-59
2023/06/15 01:27:34;;;;;;;0.90;0.90;;;30.10;33.00;;;;;;5061638;27;87538;-59
2023/06/15 01:30:04;;;;;;;0.67;0.67;;;30.10;33.00;;;;;;5060652;27;88591;-59
2023/06/15 01:32:33;;;;;;;1.20;0.80;;;30.10;33.00;;;;;;5059850;27;88035;-58
2023/06/15 01:35:01;;;;;;;1.00;0.90;;;30.10;33.70;;;;;;5060847;27;87784;-59
2023/06/15 01:37:29;;;;;;;1.00;0.83;;;30.00;33.10;;;;;;5059712;27;87629;-59
2023/06/15 01:39:57;;;;;;;2.33;0.90;;;30.00;33.10;;;;;;5060750;27;89838;-59
2023/06/15 01:42:25;;;;;;;0.83;0.70;;;30.00;33.70;;;;;;5059769;27;88439;-59
2023/06/15 01:44:55;;;;;;;1.30;0.83;;;30.00;33.80;;;;;;5060430;27;89860;-58
2023/06/15 01:47:23;;;;;;;0.90;0.70;;;29.90;33.10;;;;;;5061426;27;87582;-58
2023/06/15 01:49:51;;;;;;;1.27;0.70;;;29.90;33.10;;;;;;5060807;27;88561;-59
2023/06/15 01:52:20;;;;;;;0.83;0.80;;;29.90;33.20;;;;;;5060566;27;88053;-58
2023/06/15 01:54:48;;;;;;;2.03;0.80;;;29.90;33.90;;;;;;5060259;27;87357;-58
2023/06/15 01:57:19;;;;;;;1.43;0.77;;;29.90;33.30;;;;;;5060611;27;87665;-59
2023/06/15 01:59:47;;;;;;;2.13;1.00;;;29.80;33.20;;;;;;5060893;27;90429;-59
2023/06/15 02:02:17;;;;;;;0.80;0.80;;;29.80;33.90;;;;;;5060622;27;87302;-58
2023/06/15 02:04:45;;;;;;;1.70;0.80;;;29.80;33.30;;;;;;5060842;27;89018;-58
2023/06/15 02:07:13;;;;;;;0.90;0.90;;;29.80;34.00;;;;;;5060592;27;87949;-59
2023/06/15 02:09:41;;;;;;;1.30;0.70;;;29.80;33.30;;;;;;5060952;27;88216;-59
2023/06/15 02:12:10;;;;;;;0.93;0.83;;;29.80;33.30;;;;;;5060074;27;88133;-58
2023/06/15 02:14:38;;;;;;;1.13;0.87;;;29.80;33.40;;;;;;5060624;27;87895;-58
2023/06/15 02:17:06;;;;;;;0.80;0.80;;;29.70;33.40;;;;;;5060469;27;87633;-58
2023/06/15 02:19:36;;;;;;;0.83;0.83;;;29.70;33.40;;;;;;5060153;27;89682;-58
2023/06/15 02:22:04;;;;;;;0.80;0.80;;;29.70;33.50;;;;;;5059871;27;89282;-58
2023/06/15 02:24:32;;;;;;;2.13;1.33;;;29.70;33.50;;;;;;5059693;27;87685;-59
2023/06/15 02:27:00;;;;;;;1.30;1.03;;;29.60;33.50;;;;;;5060179;27;87527;-58
2023/06/15 02:29:28;;;;;;;0.83;0.83;;;29.60;33.60;;;;;;5060623;27;87401;-58
2023/06/15 02:31:56;;;;;;;1.80;1.03;;;29.60;33.70;;;;;;5059296;27;89232;-58
2023/06/15 02:34:25;;;;;;;3.20;1.40;;;29.60;33.80;;;;;;5060108;27;88712;-59
2023/06/15 02:36:54;;;;;;;1.30;1.20;;;29.50;33.70;;;;;;5060175;27;87614;-58
2023/06/15 02:39:23;;;;;;;1.70;1.20;;;29.50;33.70;;;;;;5060346;27;89728;-58
2023/06/15 02:41:51;;;;;;;1.73;1.20;;;29.50;33.80;;;;;;5059460;27;89250;-58
2023/06/15 02:44:21;;;;;;;1.93;1.27;;;29.50;33.80;;;;;;5060335;27;88867;-58
2023/06/15 02:46:49;;;;;;;1.60;1.00;;;29.50;33.90;;;;;;5059753;27;87678;-58
2023/06/15 02:49:18;;;;;;;3.87;1.07;;;29.50;33.90;;;;;;5063301;27;88650;-59
2023/06/15 02:51:46;;;;;;;1.07;1.00;;;29.50;34.00;;;;;;5063349;27;89099;-58
2023/06/15 02:54:16;;;;;;;6.07;1.37;;;29.50;34.10;;;;;;5063917;27;88221;-58
2023/06/15 02:56:44;;;;;;;1.03;0.93;;;29.40;34.70;;;;;;5062606;27;87922;-59
2023/06/15 02:59:13;;;;;;;1.77;1.47;;;29.40;34.10;;;;;;5063570;27;88649;-58
2023/06/15 03:01:42;;;;;;;0.80;0.77;;;29.40;34.10;;;;;;5062901;27;88027;-58
2023/06/15 03:04:14;;;;;;;1.93;1.20;;;29.20;34.10;;;;;;5063305;27;87885;-59
2023/06/15 03:06:44;;;;;;;4.10;1.20;;;29.30;34.20;;;;;;5063282;27;87644;-58
2023/06/15 03:09:13;;;;;;;1.73;1.47;;;29.30;34.30;;;;;;5045526;27;89772;-58
2023/06/15 03:11:43;;;;;;;1.47;1.30;;;29.30;34.30;;;;;;5039918;28;88256;-59
2023/06/15 03:14:11;;;;;;;3.70;1.40;;;29.30;34.40;;;;;;5040407;28;88042;-59
2023/06/15 03:16:40;;;;;;;1.40;1.30;;;29.30;34.40;;;;;;5040197;28;88373;-59
2023/06/15 03:19:09;;;;;;;8.40;1.50;;;29.20;34.40;;;;;;5048889;27;88728;-59
2023/06/15 03:21:37;;;;;;;1.57;1.20;;;29.30;34.50;;;;;;5058842;27;89055;-59
2023/06/15 03:24:08;;;;;;;1.33;1.00;;;29.20;34.50;;;;;;5059814;27;88903;-58
2023/06/15 03:26:37;;;;;;;1.20;1.10;;;29.20;34.60;;;;;;5060497;27;87738;-59
2023/06/15 03:29:07;;;;;;;2.00;1.33;;;29.20;34.60;;;;;;5059618;27;89980;-59
2023/06/15 03:31:40;;;;;;;2.10;1.20;;;29.20;34.70;;;;;;5059311;27;87747;-59
2023/06/15 03:34:08;;;;;;;1.37;1.00;;;29.20;34.70;;;;;;5060278;27;88338;-58
2023/06/15 03:36:36;;;;;;;1.30;1.20;;;29.20;34.70;;;;;;5059580;27;87710;-58
2023/06/15 03:39:06;;;;;;;1.23;1.13;;;29.20;34.80;;;;;;5060016;27;88745;-59
2023/06/15 03:41:37;;;;;;;2.00;1.20;;;29.10;34.70;;;;;;5059565;27;88109;-58
2023/06/15 03:44:06;;;;;;;3.30;1.13;;;29.20;34.80;;;;;;5059792;27;87796;-58
2023/06/15 03:46:34;;;;;;;1.43;1.30;;;29.10;34.80;;;;;;5059797;27;88035;-59
2023/06/15 03:49:02;;;;;;;1.40;1.30;;;29.10;34.90;;;;;;5059838;27;87485;-58
2023/06/15 03:51:30;;;;;;;1.77;1.23;;;29.10;34.90;;;;;;5058823;27;88117;-59
2023/06/15 03:53:59;;;;;;;1.40;1.30;;;29.20;34.90;;;;;;5059469;27;88204;-58
2023/06/15 03:56:27;;;;;;;1.00;0.90;;;29.20;34.90;;;;;;5059809;27;87815;-59
2023/06/15 03:58:55;;;;;;;1.23;0.80;;;29.20;34.90;;;;;;5058835;27;88595;-58
2023/06/15 04:01:25;;;;;;;1.73;1.43;;;29.20;34.90;;;;;;5052645;27;88032;-59
2023/06/15 04:03:54;;;;;;;1.23;1.13;;;29.20;34.90;;;;;;5042562;28;87226;-58
2023/06/15 04:06:23;;;;;;;1.20;1.10;;;29.20;35.00;;;;;;5042138;28;87594;-58
2023/06/15 04:08:51;;;;;;;1.07;0.80;;;29.20;35.00;;;;;;5041479;28;88563;-59
2023/06/15 04:11:22;;;;;;;2.07;1.27;;;29.20;35.00;;;;;;5041735;28;90328;-59
2023/06/15 04:13:51;;;;;;;1.07;0.97;;;29.20;35.00;;;;;;5041994;28;88878;-59
2023/06/15 04:16:19;;;;;;;2.50;1.00;;;29.20;35.10;;;;;;5042214;28;87655;-58
2023/06/15 04:18:48;;;;;;;1.70;1.20;;;29.20;35.70;;;;;;5047728;27;88910;-58
2023/06/15 04:21:16;;;;;;;1.53;1.20;;;29.20;35.10;;;;;;5061837;27;88299;-59
2023/06/15 04:23:44;;;;;;;0.93;0.93;;;29.20;35.10;;;;;;5062014;27;89171;-59
2023/06/15 04:26:13;;;;;;;1.23;1.13;;;29.30;35.10;;;;;;5062093;27;87694;-58
2023/06/15 04:28:45;;;;;;;1.50;1.13;;;29.60;34.90;;;;;;5062663;27;87362;-58
2023/06/15 04:31:14;;;;;;;2.37;1.27;;;30.00;34.60;;;;;;5062236;27;89006;-59
2023/06/15 04:33:43;;;;;;;1.03;0.90;;;30.40;34.30;;;;;;5061658;27;87365;-59
2023/06/15 04:36:13;;;;;;;4.87;0.87;;;30.80;34.00;;;;;;5061793;27;87859;-58
2023/06/15 04:38:46;;;;;;;2.83;1.13;;;31.20;33.70;;;;;;5061961;27;88545;-59
2023/06/15 04:41:14;;;;;;;2.20;1.30;;;31.50;33.40;;;;;;5061023;27;89114;-58
2023/06/15 04:43:43;;;;;;;1.23;1.13;;;31.90;33.20;;;;;;5061546;27;88719;-59
2023/06/15 04:46:11;;;;;;;1.93;1.00;;;32.10;32.80;;;;;;5060933;27;87575;-59
2023/06/15 04:48:43;;;;;;;3.80;0.90;;;32.30;32.60;;;;;;5061822;27;88757;-59
2023/06/15 04:51:13;;;;;;;3.30;1.10;;;32.40;32.40;;;;;;5061461;27;88141;-59
2023/06/15 04:53:42;;;;;;;1.50;1.30;;;32.60;32.40;;;;;;5061310;27;88308;-59
2023/06/15 04:56:10;;;;;;;1.20;1.10;;;32.60;32.30;;;;;;5062069;27;87494;-59
2023/06/15 04:58:38;;;;;;;2.87;1.03;;;32.60;32.40;;;;;;5061008;27;88551;-59
2023/06/15 05:01:07;;;;;;;1.37;1.27;;;32.40;32.50;;;;;;5060545;27;89023;-59
2023/06/15 05:03:35;;;;;;;0.77;0.77;;;32.10;32.70;;;;;;5061506;27;87536;-59
2023/06/15 05:06:03;;;;;;;1.30;1.20;;;31.80;32.90;;;;;;5060838;27;87804;-59
2023/06/15 05:08:33;;;;;;;1.73;1.00;;;31.60;33.10;;;;;;5060931;27;88525;-59
2023/06/15 05:11:01;;;;;;;3.53;1.20;;;31.30;33.20;;;;;;5060458;27;88259;-59
2023/06/15 05:13:30;;;;;;;0.97;0.87;;;31.20;33.40;;;;;;5052254;27;88232;-58
2023/06/15 05:15:58;;;;;;;1.30;1.20;;;31.00;33.40;;;;;;5040366;28;88288;-59
2023/06/15 05:18:26;;;;;;;4.43;1.30;;;30.90;33.50;;;;;;5044174;27;89041;-58
2023/06/15 05:20:54;;;;;;;1.10;1.00;;;30.80;33.60;;;;;;5060492;27;88105;-59
2023/06/15 05:23:22;;;;;;;1.17;1.07;;;30.70;33.70;;;;;;5060613;27;87865;-58
2023/06/15 05:25:52;;;;;;;1.10;1.00;;;30.60;33.70;;;;;;5060587;27;88055;-59
2023/06/15 05:28:20;;;;;;;2.03;1.23;;;30.50;33.80;;;;;;5060634;27;90129;-59
2023/06/15 05:30:48;;;;;;;1.90;1.37;;;30.50;33.80;;;;;;5061176;27;88069;-59
2023/06/15 05:33:17;;;;;;;1.20;1.10;;;30.50;33.90;;;;;;5060488;27;88964;-59
2023/06/15 05:35:45;;;;;;;0.87;0.80;;;30.50;34.00;;;;;;5061138;27;87363;-59
2023/06/15 05:38:13;;;;;;;1.97;1.20;;;30.50;34.00;;;;;;5060846;27;88794;-59
2023/06/15 05:40:42;;;;;;;1.77;0.97;;;30.40;34.00;;;;;;5061013;27;89485;-59
2023/06/15 05:43:11;;;;;;;3.53;1.07;;;30.40;34.00;;;;;;5059925;27;88847;-59
2023/06/15 05:45:40;;;;;;;1.40;1.07;;;30.40;34.00;;;;;;5060890;27;87662;-59
2023/06/15 05:48:08;;;;;;;2.70;1.47;;;30.40;34.10;;;;;;5060696;27;88500;-59
2023/06/15 05:50:37;;;;;;;3.67;1.50;;;30.40;34.80;;;;;;5059760;27;89133;-59
2023/06/15 05:53:05;;;;;;;2.60;1.30;;;30.40;34.10;;;;;;5059759;27;89959;-59
2023/06/15 05:55:33;;;;;;;1.47;1.37;;;30.40;34.10;;;;;;5061058;27;87693;-59
2023/06/15 05:58:02;;;;;;;1.20;1.10;;;30.50;34.20;;;;;;5060005;27;87527;-58
2023/06/15 06:00:31;;;;;;;0.97;0.97;;;30.50;34.10;;;;;;5060698;27;88089;-59
2023/06/15 06:03:01;;;;;;;1.23;1.10;;;30.50;34.10;;;;;;5059568;27;87632;-58
2023/06/15 06:05:29;;;;;;;2.93;1.10;;;30.50;34.10;;;;;;5059677;27;87467;-58
2023/06/15 06:07:58;;;;;;;5.20;1.50;;;30.50;34.80;;;;;;5060239;27;89795;-59
2023/06/15 06:10:26;;;;;;;1.63;1.10;;;30.60;34.20;;;;;;5060306;27;89156;-59
2023/06/15 06:12:54;;;;;;;1.30;1.10;;;30.60;34.20;;;;;;5060196;27;88979;-59
2023/06/15 06:15:22;;;;;;;1.20;1.10;;;30.60;34.20;;;;;;5060108;27;87709;-59
2023/06/15 06:17:52;;;;;;;1.27;1.00;;;30.60;34.20;;;;;;5059912;27;88575;-59
2023/06/15 06:20:26;;;;;;;2.67;1.10;;;30.60;34.80;;;;;;5059696;27;88090;-59
2023/06/15 06:22:54;;;;;;;2.93;1.30;;;30.60;34.20;;;;;;5061202;27;87776;-59
2023/06/15 06:25:22;;;;;;;0.97;0.83;;;30.60;34.20;;;;;;5062446;27;87690;-59
2023/06/15 06:27:50;;;;;;;1.00;0.90;;;30.60;34.20;;;;;;5063541;27;88636;-59
2023/06/15 06:30:18;;;;;;;3.03;1.23;;;30.70;34.20;;;;;;5063884;27;89243;-59
2023/06/15 06:32:46;;;;;;;1.77;1.30;;;30.70;34.20;;;;;;5063590;27;87561;-59
2023/06/15 06:35:16;;;;;;;1.40;1.30;;;30.70;34.20;;;;;;5063904;27;87549;-59
2023/06/15 06:37:44;;;;;;;2.83;1.23;;;30.70;34.20;;;;;;5063720;27;88567;-59
2023/06/15 06:40:13;;;;;;;2.93;1.10;;;30.70;34.10;;;;;;5063369;27;88051;-59
2023/06/15 06:42:41;;;;;;;1.43;0.80;;;30.70;34.10;;;;;;5063832;27;89056;-59
2023/06/15 06:45:10;;;;;;;2.33;1.20;;;30.70;34.10;;;;;;5063688;27;89008;-59
2023/06/15 06:47:38;;;;;;;2.73;1.27;;;30.70;34.10;;;;;;5063674;27;88513;-59
2023/06/15 06:50:07;;;;;;;2.23;1.40;;;30.70;34.10;;;;;;5063836;27;88072;-59
2023/06/15 06:52:37;;;;;;;1.47;1.30;;;30.80;34.10;;;;;;5063529;27;87964;-59
2023/06/15 06:55:06;;;;;;;1.80;1.50;;;30.80;34.10;;;;;;5062848;27;87744;-59
2023/06/15 06:57:34;;;;;;;2.40;1.30;;;30.80;34.00;;;;;;5062474;27;88582;-59
2023/06/15 07:00:02;;;;;;;5.20;1.30;;;30.80;34.00;;;;;;5063415;27;88447;-59
2023/06/15 07:02:32;;;;;;;1.70;1.50;;;30.80;33.90;;;;;;5063073;27;87848;-59
2023/06/15 07:05:00;;;;;;;2.30;1.50;;;30.80;33.90;;;;;;5063664;27;87792;-59
2023/06/15 07:07:28;;;;;;;1.17;0.90;;;30.80;33.90;;;;;;5063289;27;88680;-59
2023/06/15 07:09:57;;;;;;;2.17;1.30;;;30.80;33.90;;;;;;5062264;27;88235;-59
2023/06/15 07:12:26;;;;;;;2.20;1.63;;;30.90;34.00;;;;;;5063170;27;87651;-59
2023/06/15 07:14:55;;;;;;;1.37;1.20;;;30.90;34.00;;;;;;5063127;27;87658;-59
2023/06/15 07:17:23;;;;;;;2.03;1.27;;;30.90;33.90;;;;;;5056132;27;88736;-59
2023/06/15 07:19:51;;;;;;;1.97;1.60;;;30.90;33.90;;;;;;5062532;27;88158;-59
2023/06/15 07:22:19;;;;;;;1.60;1.40;;;30.90;33.90;;;;;;5062848;27;88842;-59
2023/06/15 07:24:47;;;;;;;1.07;0.97;;;30.90;33.80;;;;;;5062079;27;87509;-59
2023/06/15 07:27:18;;;;;;;1.20;1.10;;;30.90;33.80;;;;;;5060732;27;88528;-59
2023/06/15 07:29:46;;;;;;;1.30;1.20;;;30.90;33.80;;;;;;5061537;27;88972;-59
2023/06/15 07:32:14;;;;;;;2.37;1.30;;;30.90;33.80;;;;;;5061630;27;88746;-59
2023/06/15 07:34:42;;;;;;;1.20;1.10;;;30.90;33.80;;;;;;5060926;27;88168;-59
2023/06/15 07:37:10;;;;;;;2.07;1.23;;;30.90;33.80;;;;;;5062512;27;88555;-59
2023/06/15 07:39:39;;;;;;;4.90;1.40;;;30.90;33.80;;;;;;5062517;27;87114;-59
2023/06/15 07:42:08;;;;;;;1.57;1.40;;;30.90;33.80;;;;;;5062741;27;87321;-59
2023/06/15 07:44:37;;;;;;;1.30;1.10;;;30.90;33.80;;;;;;5062795;27;87637;-59
2023/06/15 07:47:06;;;;;;;3.07;1.07;;;30.90;33.80;;;;;;5062256;27;88084;-59
2023/06/15 07:49:34;;;;;;;1.93;1.43;;;30.90;33.80;;;;;;5062504;27;88067;-59
2023/06/15 07:52:13;;;;;;;2.83;1.10;;;30.90;33.80;;;;;;5061330;27;88795;-59
2023/06/15 07:54:41;;;;;;;0.80;0.73;;;31.00;33.70;;;;;;5062002;27;87978;-59
2023/06/15 07:57:10;;;;;;;1.30;1.10;;;30.90;33.70;;;;;;5062789;27;88497;-59
2023/06/15 07:59:39;;;;;;;1.60;1.20;;;30.90;33.60;;;;;;5062363;27;89303;-59
2023/06/15 08:02:08;;;;;;;1.00;0.90;;;30.90;33.50;;;;;;5061804;27;87727;-59
2023/06/15 08:04:36;;;;;;;1.73;1.10;;;30.90;33.50;;;;;;5062283;27;87609;-59
2023/06/15 08:07:04;;;;;;;1.50;0.93;;;30.90;33.50;;;;;;5062405;27;89857;-59
2023/06/15 08:09:32;;;;;;;1.30;1.20;;;30.90;33.50;;;;;;5062716;27;88118;-59
2023/06/15 08:12:01;;;;;;;2.03;1.53;;;30.90;33.50;;;;;;5061706;27;87876;-59
2023/06/15 08:14:29;;;;;;;1.27;1.13;;;30.90;33.50;;;;;;5061025;27;87414;-59
2023/06/15 08:16:58;;;;;;;1.33;1.10;;;30.90;33.50;;;;;;5061751;27;88522;-59
2023/06/15 08:19:27;;;;;;;1.23;1.00;;;30.90;33.50;;;;;;5061193;27;90473;-59
2023/06/15 08:21:55;;;;;;;1.30;1.10;;;30.90;33.40;;;;;;5061095;27;89075;-59
2023/06/15 08:24:23;;;;;;;3.63;1.60;;;30.90;33.40;;;;;;5061990;27;87643;-59
2023/06/15 08:26:55;;;;;;;1.60;1.10;;;30.90;33.40;;;;;;5061163;27;89847;-59
2023/06/15 08:29:23;;;;;;;1.00;0.90;;;30.90;33.40;;;;;;5061416;27;88149;-59
2023/06/15 08:31:52;;;;;;;1.17;1.07;;;30.90;33.40;;;;;;5060818;27;87530;-59
2023/06/15 08:34:21;;;;;;;2.67;1.30;;;30.90;33.40;;;;;;5061390;27;87556;-59
2023/06/15 08:36:49;;;;;;;4.90;1.70;;;30.90;33.40;;;;;;5062070;27;88975;-59
2023/06/15 08:39:17;;;;;;;4.63;1.80;;;30.90;33.40;;;;;;5061002;27;89068;-59
2023/06/15 08:41:47;;;;;;;3.33;1.40;;;30.90;33.30;;;;;;5061489;27;88833;-59
2023/06/15 08:44:15;;;;;;;2.00;1.30;;;30.90;33.30;;;;;;5060716;27;87959;-59
2023/06/15 08:46:43;;;;;;;1.90;1.03;;;30.90;33.40;;;;;;5061191;27;89708;-59
2023/06/15 08:49:11;;;;;;;1.47;1.03;;;30.90;33.30;;;;;;5061560;27;88154;-58
2023/06/15 08:51:41;;;;;;;0.93;0.80;;;30.90;33.30;;;;;;5061498;27;87344;-59
2023/06/15 08:54:09;;;;;;;3.40;1.17;;;30.90;33.30;;;;;;5060022;27;87743;-58
2023/06/15 08:56:38;;;;;;;1.27;1.00;;;30.90;33.20;;;;;;5060310;27;91095;-59
2023/06/15 08:59:07;;;;;;;2.50;1.20;;;30.90;33.20;;;;;;5061140;27;90273;-58
2023/06/15 09:01:39;;;;;;;2.37;1.60;;;30.90;33.90;;;;;;5061178;27;87513;-59
2023/06/15 09:04:07;;;;;;;2.00;1.10;;;30.90;33.30;;;;;;5061546;27;87177;-58
2023/06/15 09:06:36;;;;;;;1.47;1.03;;;30.90;33.30;;;;;;5061298;27;89640;-58
2023/06/15 09:09:05;;;;;;;1.10;0.90;;;31.00;33.30;;;;;;5061338;27;88997;-58
2023/06/15 09:11:39;;;;;;;3.73;1.33;;;31.00;33.40;;;;;;5061552;27;89761;-58
2023/06/15 09:14:09;;;;;;;1.50;1.40;;;31.00;33.40;;;;;;5060749;27;87535;-58
2023/06/15 09:16:37;;;;;;;1.40;0.93;;;31.00;33.40;;;;;;5061114;27;89885;-58
2023/06/15 09:19:10;;;;;;;3.53;1.03;;;31.00;33.30;;;;;;5060804;27;88150;-58
2023/06/15 09:21:43;;;;;;;2.30;1.17;;;31.00;33.30;;;;;;5060733;27;87918;-58
2023/06/15 09:24:13;;;;;;;1.23;1.10;;;31.00;33.30;;;;;;5059924;27;87473;-58
2023/06/15 09:26:41;;;;;;;2.97;1.10;;;31.00;33.20;;;;;;5059935;27;89467;-59
2023/06/15 09:29:11;;;;;;;0.87;0.83;;;31.00;33.20;;;;;;5061113;27;88219;-58
2023/06/15 09:31:40;;;;;;;2.67;1.03;;;31.00;33.20;;;;;;5060963;27;87717;-58
2023/06/15 09:34:09;;;;;;;1.87;1.13;;;31.00;33.20;;;;;;5060812;27;87793;-58
2023/06/15 09:36:40;;;;;;;12.90;1.20;;;31.00;33.10;;;;;;5059397;27;87664;-58
2023/06/15 09:39:09;;;;;;;3.73;1.10;;;31.00;33.10;;;;;;5061224;27;87644;-58
2023/06/15 09:41:51;;;;;;;1.00;0.80;;;31.00;33.00;;;;;;5060732;27;88696;-58
2023/06/15 09:44:21;;;;;;;1.40;1.30;;;31.00;33.00;;;;;;5060962;27;87427;-59
2023/06/15 09:46:50;;;;;;;4.00;1.20;;;31.00;32.90;;;;;;5060265;27;89735;-58
2023/06/15 09:49:23;;;;;;;1.10;1.00;;;31.00;32.90;;;;;;5060522;27;87483;-58
2023/06/15 09:51:51;;;;;;;1.13;1.03;;;31.00;33.50;;;;;;5059232;27;87671;-58
2023/06/15 09:54:20;;;;;;;1.60;1.17;;;31.10;32.90;;;;;;5060891;27;87423;-58
2023/06/15 09:56:51;;;;;;;1.57;1.37;;;31.00;32.80;;;;;;5059388;27;87389;-58
2023/06/15 09:59:19;;;;;;;0.97;0.93;;;31.10;32.80;;;;;;5058871;27;90141;-58
2023/06/15 10:01:48;;;;;;;1.53;1.23;;;31.10;32.70;;;;;;5060277;27;89999;-58
2023/06/15 10:04:18;;;;;;;1.03;0.93;;;31.10;32.60;;;;;;5060960;27;87683;-58
2023/06/15 10:06:48;;;;;;;1.67;1.20;;;31.10;32.60;;;;;;5060152;27;89548;-59
2023/06/15 10:09:17;;;;;;;1.60;1.17;;;31.10;32.50;;;;;;5059931;27;88083;-58
2023/06/15 10:11:46;;;;;;;0.93;0.93;;;31.10;32.50;;;;;;5059794;27;89010;-59
2023/06/15 10:14:19;;;;;;;2.27;1.07;;;31.10;32.50;;;;;;5060979;27;87732;-59
2023/06/15 10:16:58;;;;;;;2.67;1.30;;;31.10;32.50;;;;;;5060722;27;88421;-58
2023/06/15 10:19:26;;;;;;;1.50;0.93;;;31.10;32.40;;;;;;5060333;27;88106;-59
2023/06/15 10:21:54;;;;;;;2.60;1.30;;;31.00;32.30;;;;;;5060314;27;87796;-58
2023/06/15 10:24:23;;;;;;;1.20;1.10;;;31.10;32.20;;;;;;5060323;27;87916;-57
2023/06/15 10:26:51;;;;;;;1.67;1.00;;;31.00;32.10;;;;;;5059849;27;88514;-59
2023/06/15 10:29:22;;;;;;;2.73;1.17;;;30.90;32.00;;;;;;5060031;27;87773;-61
2023/06/15 10:31:52;;;;;;;2.17;1.07;;;30.90;32.60;;;;;;5060462;27;90025;-62
2023/06/15 10:34:24;;;;;;;1.40;1.20;;;30.90;32.00;;;;;;5059823;27;87645;-58
2023/06/15 10:36:57;;;;;;;1.70;1.20;;;30.80;32.00;;;;;;5059790;27;88684;-58
2023/06/15 10:39:27;;;;;;;3.07;1.20;;;30.80;32.00;;;;;;5056709;27;93230;-59
2023/06/15 10:41:57;;;;;;;1.73;1.17;;;30.70;31.90;;;;;;5056522;27;92782;-58
2023/06/15 10:44:32;;;;;;;1.87;1.00;;;30.70;31.90;;;;;;5056481;27;92131;-58
2023/06/15 10:47:07;;;;;;;1.20;1.10;;;30.50;31.80;;;;;;5057374;27;92077;-58
2023/06/15 10:49:35;;;;;;;2.17;1.63;;;30.40;31.70;;;;;;5056278;27;94057;-58
2023/06/15 10:52:05;;;;;;;6.17;1.10;;;30.40;31.80;;;;;;5057014;27;93660;-56
2023/06/15 10:54:34;;;;;;;1.83;1.07;;;30.40;31.80;;;;;;5056243;27;92762;-58
2023/06/15 10:57:02;;;;;;;2.40;1.43;;;30.40;31.80;;;;;;5056002;27;92108;-57
2023/06/15 10:59:42;;;;;;;1.80;1.37;;;30.40;31.90;;;;;;5057622;27;93155;-57
2023/06/15 11:02:48;;;;;;;3.70;1.37;;;30.30;31.90;;;;;;5056936;27;92740;-57
2023/06/15 11:05:19;;;;;;;1.33;1.23;;;30.30;32.00;;;;;;5056986;27;92018;-57
2023/06/15 11:07:49;;;;;;;1.80;1.30;;;30.40;32.00;;;;;;5057903;27;91319;-57
2023/06/15 11:10:18;;;;;;;2.83;0.90;;;30.50;32.00;;;;;;5060526;27;93126;-58
2023/06/15 11:12:48;;;;;;;1.33;1.23;;;30.50;32.00;;;;;;5060748;27;92790;-57
2023/06/15 11:15:18;;;;;;;1.57;1.03;;;30.60;32.00;;;;;;5060215;27;92907;-57
2023/06/15 11:17:56;;;;;;;1.40;1.30;;;30.70;32.00;;;;;;5060079;27;92226;-58
2023/06/15 11:20:44;;;;;;;1.40;1.30;;;30.70;32.00;;;;;;5060409;27;92865;-58
2023/06/15 11:23:14;;;;;;;5.07;1.30;;;30.70;32.00;;;;;;5060329;27;94009;-58
2023/06/15 11:25:43;;;;;;;1.10;0.87;;;30.80;32.00;;;;;;5060466;27;91947;-58
2023/06/15 11:28:12;;;;;;;1.07;1.00;;;30.80;31.90;;;;;;5059933;27;92153;-57
2023/06/15 11:31:02;;;;;;;1.33;1.23;;;30.90;32.00;;;;;;5059941;27;93204;-57
2023/06/15 11:33:32;;;;;;;1.80;1.60;;;30.90;31.90;;;;;;5060784;27;92614;-57
2023/06/15 11:36:04;;;;;;;1.57;1.00;;;30.90;31.90;;;;;;5060782;27;91966;-55
2023/06/15 11:38:32;;;;;;;1.53;1.20;;;31.00;32.00;;;;;;5060238;27;91981;-57
2023/06/15 11:41:01;;;;;;;3.80;1.30;;;31.00;32.00;;;;;;5059603;27;94004;-57
2023/06/15 11:43:34;;;;;;;1.37;1.20;;;31.00;32.10;;;;;;5059765;27;94779;-57
2023/06/15 11:46:04;;;;;;;1.50;1.33;;;31.00;32.10;;;;;;5060745;27;92122;-57
2023/06/15 11:48:32;;;;;;;1.83;1.30;;;31.00;32.10;;;;;;5060271;27;92071;-57
2023/06/15 11:51:00;;;;;;;1.80;1.30;;;31.00;32.10;;;;;;5060010;27;93316;-57
2023/06/15 11:53:28;;;;;;;2.23;1.30;;;31.00;32.10;;;;;;5059735;27;92855;-57
2023/06/15 11:55:56;;;;;;;0.97;0.97;;;31.00;32.10;;;;;;5060445;27;91966;-57
2023/06/15 11:58:25;;;;;;;4.67;1.27;;;31.00;32.10;;;;;;5060311;27;91315;-55
2023/06/15 12:00:53;;;;;;;2.27;1.27;;;31.10;32.10;;;;;;5059753;27;93078;-57
2023/06/15 12:03:22;;;;;;;5.67;1.10;;;31.10;32.00;;;;;;5059798;27;93931;-57
2023/06/15 12:05:57;;;;;;;1.20;1.10;;;31.10;31.90;;;;;;5059597;27;92974;-57
2023/06/15 12:08:26;;;;;;;0.93;0.90;;;31.10;31.80;;;;;;5059955;27;92005;-58
2023/06/15 12:10:55;;;;;;;1.93;1.10;;;31.10;31.70;;;;;;5059994;27;96661;-58
2023/06/15 12:13:24;;;;;;;1.10;1.00;;;31.10;31.60;;;;;;5059774;27;92689;-58
2023/06/15 12:15:53;;;;;;;1.47;0.90;;;31.10;31.50;;;;;;5060157;27;91936;-58
2023/06/15 12:18:23;;;;;;;2.00;1.20;;;31.10;31.50;;;;;;5059282;27;92167;-58
2023/06/15 12:20:51;;;;;;;1.07;0.80;;;31.20;31.50;;;;;;5057973;27;93197;-58
2023/06/15 12:23:29;;;;;;;1.87;0.87;;;31.10;31.30;;;;;;5060060;27;93658;-58
2023/06/15 12:25:57;;;;;;;1.80;1.03;;;31.20;31.40;;;;;;5059936;27;92243;-58
2023/06/15 12:28:26;;;;;;;2.47;1.07;;;31.20;31.20;;;;;;5059749;27;92245;-58
2023/06/15 12:30:58;;;;;;;2.73;0.70;;;31.20;31.90;;;;;;5058698;27;95217;-58
2023/06/15 12:33:31;;;;;;;2.40;1.00;;;31.10;31.10;;;;;;5059445;27;93810;-58
2023/06/15 12:36:00;;;;;;;2.00;1.13;;;31.10;31.10;;;;;;5059634;27;91862;-58
2023/06/15 12:38:29;;;;;;;2.17;1.17;;;31.00;31.00;;;;;;5058900;27;92087;-58
2023/06/15 12:40:58;;;;;;;3.17;1.30;;;31.00;30.90;;;;;;5058874;27;92963;-58
2023/06/15 12:43:26;;;;;;;3.37;1.10;;;30.90;30.80;;;;;;5059088;27;93970;-58
2023/06/15 12:45:55;;;;;;;2.37;1.10;;;30.90;30.70;;;;;;5059649;27;92025;-58
2023/06/15 12:48:23;;;;;;;3.53;1.10;;;30.90;30.70;;;;;;5059235;27;91769;-58
2023/06/15 12:50:53;;;;;;;2.03;1.07;;;30.80;30.60;;;;;;5071197;27;94155;-58
2023/06/15 12:53:21;;;;;;;1.20;1.10;;;30.70;30.60;;;;;;5079280;27;92744;-57
2023/06/15 12:55:50;;;;;;;1.10;1.00;;;30.60;30.50;;;;;;5078300;27;92996;-61
2023/06/15 12:58:18;;;;;;;1.33;1.20;;;30.60;30.60;;;;;;5079183;27;92062;-58